YXK weather

Rimouski Airport
Rimouski, Quebec, Canada

Public forecast

Using degrees Celsius for public forecast. Weather courtesy of forecast.io.

Closest aviation weather report (METAR) to Rimouski Airport

Closest report is Mont Joli Airport, 13.9 nm (25.7 km) NE. Retrieved 2019/12/10 21:00 UTC (19 minutes ago):

CYYY 102100Z 23014G22KT 15SM -RA BKN035 05/01 A2942 RMK SC7 SLP966

Closest aviation forecast (TAF) to Rimouski Airport

Closest forecast is Mont Joli Airport, 13.9 nm (25.7 km) NE. Retrieved 2019/12/10 20:00 UTC (1 hour ago):

TAF CYYY 101938Z 1020/1108 26015G25KT P6SM FEW020 BKN080 TEMPO 1020/1023 5SM -SHRA BR BKN020 FM102300 27015G25KT P6SM BKN030 TEMPO 1023/1024 5SM -SHRASN BR BKN020 FM110000 28015G25KT P6SM BKN030 TEMPO 1100/1101 21/2SM -SHSN BKN020 RMK NXT FCST BY 110200Z